createdAt,value
2022-08-26T00:01:30.068Z,26.40
2022-08-26T00:04:15.764Z,26.40
2022-08-26T00:07:01.357Z,26.40
2022-08-26T00:09:47.671Z,26.40
2022-08-26T00:12:37.311Z,26.40
2022-08-26T00:15:23.252Z,26.40
2022-08-26T00:18:16.945Z,26.30
2022-08-26T00:21:08.677Z,26.30
2022-08-26T00:23:54.229Z,26.20
2022-08-26T00:26:40.175Z,26.20
2022-08-26T00:29:26.953Z,26.10
2022-08-26T00:32:12.778Z,26.10
2022-08-26T00:34:59.979Z,26.10
2022-08-26T00:37:46.873Z,26.00
2022-08-26T00:40:34.043Z,26.00
2022-08-26T00:43:19.812Z,25.90
2022-08-26T00:46:11.832Z,25.90
2022-08-26T00:49:02.352Z,25.90
2022-08-26T00:51:50.917Z,25.90
2022-08-26T00:54:38.554Z,25.90
2022-08-26T00:57:28.255Z,25.80
2022-08-26T01:00:17.397Z,25.80
2022-08-26T01:03:03.514Z,25.80
2022-08-26T01:05:51.595Z,25.80
2022-08-26T01:08:37.403Z,25.80
2022-08-26T01:11:23.747Z,25.70
2022-08-26T01:14:15.538Z,25.60
2022-08-26T01:17:01.777Z,25.60
2022-08-26T01:20:06.680Z,25.60
2022-08-26T01:23:03.326Z,25.50
2022-08-26T01:25:52.815Z,25.50
2022-08-26T01:28:39.069Z,25.60
2022-08-26T01:31:28.028Z,25.60
2022-08-26T01:34:19.666Z,25.60
2022-08-26T01:37:07.633Z,25.70
2022-08-26T01:39:54.894Z,25.60
2022-08-26T01:42:41.076Z,25.50
2022-08-26T01:45:28.426Z,25.50
2022-08-26T01:48:15.995Z,25.50
2022-08-26T01:51:03.446Z,25.50
2022-08-26T01:53:49.645Z,25.50
2022-08-26T01:56:36.556Z,25.50
2022-08-26T01:59:22.608Z,25.30
2022-08-26T02:02:08.041Z,25.30
2022-08-26T02:04:57.277Z,25.30
2022-08-26T02:07:43.861Z,25.30
2022-08-26T02:10:29.879Z,25.30
2022-08-26T02:13:15.612Z,25.30
2022-08-26T02:16:01.645Z,25.20
2022-08-26T02:18:48.733Z,25.30
2022-08-26T02:21:34.696Z,25.40
2022-08-26T02:24:27.289Z,25.20
2022-08-26T02:27:14.187Z,25.20
2022-08-26T02:30:11.815Z,25.20
2022-08-26T02:33:03.589Z,25.20
2022-08-26T02:35:49.179Z,25.20
2022-08-26T02:38:35.423Z,25.20
2022-08-26T02:41:20.724Z,25.20
2022-08-26T02:44:08.444Z,25.20
2022-08-26T02:46:55.172Z,25.20
2022-08-26T02:49:42.452Z,25.20
2022-08-26T02:52:30.122Z,25.10
2022-08-26T02:55:16.615Z,25.10
2022-08-26T02:58:02.301Z,25.10
2022-08-26T03:00:49.301Z,25.00
2022-08-26T03:03:39.132Z,25.10
2022-08-26T03:06:24.844Z,25.00
2022-08-26T03:09:11.128Z,25.00
2022-08-26T03:12:04.844Z,25.00
2022-08-26T03:14:50.592Z,25.00
2022-08-26T03:17:38.352Z,25.00
2022-08-26T03:20:25.581Z,24.90
2022-08-26T03:23:12.452Z,25.00
2022-08-26T03:25:58.391Z,24.80
2022-08-26T03:29:02.237Z,24.70
2022-08-26T03:31:48.867Z,24.70
2022-08-26T03:34:36.387Z,24.60
2022-08-26T03:37:22.276Z,24.60
2022-08-26T03:40:10.413Z,24.60
2022-08-26T03:42:56.249Z,24.60
2022-08-26T03:45:42.014Z,24.70
2022-08-26T03:48:28.320Z,24.60
2022-08-26T03:51:18.555Z,24.60
2022-08-26T03:54:05.312Z,24.60
2022-08-26T03:56:53.981Z,24.60
2022-08-26T03:59:41.357Z,24.60
2022-08-26T04:02:27.073Z,24.60
2022-08-26T04:05:13.832Z,24.60
2022-08-26T04:07:59.309Z,24.50
2022-08-26T04:10:44.751Z,24.50
2022-08-26T04:13:30.503Z,24.40
2022-08-26T04:16:17.041Z,24.40
2022-08-26T04:19:02.634Z,24.40
2022-08-26T04:21:48.625Z,24.40
2022-08-26T04:24:34.945Z,24.40
2022-08-26T04:27:20.374Z,24.40
2022-08-26T04:30:06.530Z,24.30
2022-08-26T04:32:54.378Z,24.40
2022-08-26T04:35:39.915Z,24.40
2022-08-26T04:38:29.258Z,24.50
2022-08-26T04:41:16.810Z,24.60
2022-08-26T04:44:02.658Z,24.70
2022-08-26T04:46:48.518Z,24.80
2022-08-26T04:49:35.178Z,24.70
2022-08-26T04:52:21.036Z,24.70
2022-08-26T04:55:08.626Z,24.70
2022-08-26T04:57:54.961Z,24.70
2022-08-26T05:00:40.918Z,24.70
2022-08-26T05:03:30.272Z,24.80
2022-08-26T05:06:17.179Z,24.80
2022-08-26T05:09:05.078Z,24.70
2022-08-26T05:11:52.505Z,24.70
2022-08-26T05:14:37.987Z,24.70
2022-08-26T05:17:23.648Z,24.60
2022-08-26T05:20:09.825Z,24.60
2022-08-26T05:22:56.380Z,24.60
2022-08-26T05:25:45.196Z,24.60
2022-08-26T05:28:30.763Z,24.60
2022-08-26T05:31:19.189Z,24.60
2022-08-26T05:34:05.939Z,24.60
2022-08-26T05:36:52.611Z,24.60
2022-08-26T05:39:41.178Z,24.70
2022-08-26T05:42:27.241Z,24.60
2022-08-26T05:45:13.993Z,24.80
2022-08-26T05:47:59.744Z,24.80
2022-08-26T05:50:48.256Z,22.70
2022-08-26T05:53:34.755Z,24.80
2022-08-26T05:56:29.262Z,24.60
2022-08-26T05:59:15.912Z,24.50
2022-08-26T06:02:10.145Z,24.60
2022-08-26T06:04:57.192Z,24.60
2022-08-26T06:08:01.808Z,24.70
2022-08-26T06:10:53.872Z,24.80
2022-08-26T06:13:40.060Z,24.80
2022-08-26T06:16:25.679Z,24.80
2022-08-26T06:19:12.212Z,24.60
2022-08-26T06:21:57.795Z,24.50
2022-08-26T06:25:02.072Z,24.50
2022-08-26T06:27:48.884Z,24.40
2022-08-26T06:30:38.174Z,24.40
2022-08-26T06:33:23.848Z,24.40
2022-08-26T06:36:09.345Z,24.40
2022-08-26T06:38:56.783Z,24.30
2022-08-26T06:41:45.032Z,24.30
2022-08-26T06:44:35.899Z,24.40
2022-08-26T06:47:21.479Z,24.40
2022-08-26T06:50:08.323Z,24.40
2022-08-26T06:52:54.272Z,24.40
2022-08-26T06:55:43.083Z,24.50
2022-08-26T06:58:30.742Z,24.80
2022-08-26T07:01:18.914Z,24.90
2022-08-26T07:04:10.485Z,25.10
2022-08-26T07:06:56.367Z,25.10
2022-08-26T07:09:42.053Z,25.10
2022-08-26T07:12:27.855Z,25.10
2022-08-26T07:15:13.467Z,25.20
2022-08-26T07:18:00.452Z,25.20
2022-08-26T07:20:45.990Z,25.20
2022-08-26T07:23:32.000Z,25.20
2022-08-26T07:26:25.072Z,25.20
2022-08-26T07:29:12.518Z,25.30
2022-08-26T07:31:58.250Z,25.30
2022-08-26T07:34:43.713Z,25.30
2022-08-26T07:37:30.522Z,25.40
2022-08-26T07:40:21.808Z,25.50
2022-08-26T07:43:09.615Z,25.50
2022-08-26T07:45:55.807Z,25.60
2022-08-26T07:48:41.420Z,25.60
2022-08-26T07:51:31.934Z,25.60
2022-08-26T07:54:17.804Z,25.60
2022-08-26T07:57:08.318Z,25.70
2022-08-26T07:59:55.410Z,25.70
2022-08-26T08:02:41.085Z,25.70
2022-08-26T08:05:30.546Z,25.80
2022-08-26T08:08:27.733Z,25.80
2022-08-26T08:11:14.528Z,25.90
2022-08-26T08:14:01.102Z,25.90
2022-08-26T08:16:47.249Z,25.90
2022-08-26T08:19:39.221Z,25.90
2022-08-26T08:22:25.392Z,26.00
2022-08-26T08:25:13.120Z,26.00
2022-08-26T08:27:58.508Z,26.10
2022-08-26T08:30:44.018Z,26.10
2022-08-26T08:33:30.319Z,26.20
2022-08-26T08:36:18.484Z,26.20
2022-08-26T08:39:06.382Z,26.20
2022-08-26T08:42:04.212Z,26.40
2022-08-26T08:44:52.138Z,26.40
2022-08-26T08:47:43.098Z,26.50
2022-08-26T08:50:31.004Z,26.50
2022-08-26T08:53:17.714Z,26.60
2022-08-26T08:56:12.559Z,26.70
2022-08-26T08:59:07.295Z,26.70
2022-08-26T09:02:18.385Z,26.90
2022-08-26T09:05:10.222Z,26.90
2022-08-26T09:08:06.594Z,27.00
2022-08-26T09:10:54.274Z,27.10
2022-08-26T09:13:44.407Z,27.20
2022-08-26T09:16:39.424Z,27.30
2022-08-26T09:19:39.424Z,27.40
2022-08-26T09:22:35.882Z,27.40
2022-08-26T09:25:21.678Z,27.50
2022-08-26T09:28:10.763Z,27.60
2022-08-26T09:31:10.666Z,27.60
2022-08-26T09:34:08.118Z,27.70
2022-08-26T09:36:58.215Z,27.70
2022-08-26T09:39:43.567Z,27.80
2022-08-26T09:42:29.711Z,27.90
2022-08-26T09:45:15.594Z,27.90
2022-08-26T09:48:03.363Z,28.10
2022-08-26T09:50:53.318Z,28.10
2022-08-26T09:53:50.772Z,28.20
2022-08-26T09:56:38.373Z,28.30
2022-08-26T09:59:30.994Z,28.30
2022-08-26T10:02:20.719Z,28.40
2022-08-26T10:05:09.641Z,28.50
2022-08-26T10:07:55.668Z,28.60
2022-08-26T10:10:42.023Z,28.60
2022-08-26T10:13:43.331Z,28.60
2022-08-26T10:16:42.330Z,28.60
2022-08-26T10:19:55.639Z,28.70
2022-08-26T10:22:46.942Z,28.70
2022-08-26T10:25:51.513Z,28.80
2022-08-26T10:28:37.761Z,28.90
2022-08-26T10:31:27.896Z,28.90
2022-08-26T10:34:14.214Z,29.00
2022-08-26T10:37:14.111Z,29.00
2022-08-26T10:40:05.104Z,29.10
2022-08-26T10:42:54.976Z,29.20
2022-08-26T10:45:44.174Z,29.30
2022-08-26T10:48:42.072Z,29.40
2022-08-26T10:51:35.681Z,29.50
2022-08-26T10:54:21.572Z,29.50
2022-08-26T10:57:09.601Z,29.50
2022-08-26T11:00:27.926Z,29.60
2022-08-26T11:03:28.329Z,29.60
2022-08-26T11:06:25.587Z,29.60
2022-08-26T11:09:12.203Z,29.70
2022-08-26T11:11:58.479Z,29.70
2022-08-26T11:14:53.298Z,29.80
2022-08-26T11:17:48.654Z,29.90
2022-08-26T11:20:34.932Z,30.00
2022-08-26T11:23:20.395Z,30.10
2022-08-26T11:26:09.607Z,30.10
2022-08-26T11:28:58.351Z,30.10
2022-08-26T11:31:50.291Z,30.20
2022-08-26T11:34:54.945Z,30.20
2022-08-26T11:37:41.535Z,30.30
2022-08-26T11:40:30.132Z,30.40
2022-08-26T11:43:21.216Z,30.50
2022-08-26T11:46:09.180Z,30.60
2022-08-26T11:49:02.594Z,30.60
2022-08-26T11:51:49.660Z,30.60
2022-08-26T11:54:35.926Z,30.60
2022-08-26T11:57:21.471Z,30.70
2022-08-26T12:00:13.537Z,30.70
2022-08-26T12:03:02.505Z,30.80
2022-08-26T12:05:49.792Z,30.80
2022-08-26T12:08:41.206Z,30.90
2022-08-26T12:11:31.345Z,30.90
2022-08-26T12:14:19.900Z,30.90
2022-08-26T12:17:19.332Z,30.90
2022-08-26T12:20:18.747Z,30.90
2022-08-26T12:23:04.809Z,30.90
2022-08-26T12:25:54.140Z,30.80
2022-08-26T12:28:48.845Z,30.80
2022-08-26T12:31:36.421Z,30.80
2022-08-26T12:34:21.809Z,30.70
2022-08-26T12:37:09.926Z,30.70
2022-08-26T12:39:55.861Z,30.60
2022-08-26T12:42:42.073Z,30.60
2022-08-26T12:45:32.688Z,30.60
2022-08-26T12:48:30.363Z,30.70
2022-08-26T12:51:28.713Z,30.80
2022-08-26T12:54:15.996Z,30.80
2022-08-26T12:57:10.648Z,30.80
2022-08-26T13:00:30.367Z,30.90
2022-08-26T13:03:43.850Z,30.90
2022-08-26T13:06:31.174Z,30.90
2022-08-26T13:09:16.987Z,31.80
2022-08-26T13:12:02.881Z,31.10
2022-08-26T13:14:48.262Z,31.10
2022-08-26T13:17:35.894Z,31.10
2022-08-26T13:20:21.425Z,31.10
2022-08-26T13:23:08.193Z,31.10
2022-08-26T13:25:53.957Z,31.20
2022-08-26T13:28:39.366Z,31.30
2022-08-26T13:31:27.198Z,31.40
2022-08-26T13:34:19.452Z,31.50
2022-08-26T13:37:05.855Z,31.60
2022-08-26T13:39:53.508Z,31.70
2022-08-26T13:42:43.048Z,31.90
2022-08-26T13:45:36.365Z,32.00
2022-08-26T13:48:23.591Z,32.20
2022-08-26T13:51:09.691Z,32.40
2022-08-26T13:53:56.445Z,32.50
2022-08-26T13:56:42.068Z,32.60
2022-08-26T13:59:27.733Z,32.80
2022-08-26T14:02:13.457Z,32.90
2022-08-26T14:04:58.968Z,33.10
2022-08-26T14:07:44.502Z,33.10
2022-08-26T14:10:30.523Z,33.10
2022-08-26T14:13:16.474Z,33.00
2022-08-26T14:16:10.210Z,32.80
2022-08-26T14:18:55.522Z,32.70
2022-08-26T14:21:41.109Z,32.40
2022-08-26T14:24:26.745Z,32.30
2022-08-26T14:27:13.196Z,32.40
2022-08-26T14:29:59.505Z,32.50
2022-08-26T14:32:48.454Z,32.50
2022-08-26T14:35:34.228Z,32.60
2022-08-26T14:38:19.800Z,32.70
2022-08-26T14:41:05.532Z,32.90
2022-08-26T14:43:57.872Z,33.00
2022-08-26T14:46:49.613Z,33.00
2022-08-26T14:49:35.757Z,33.00
2022-08-26T14:52:21.672Z,32.90
2022-08-26T14:55:07.718Z,32.90
2022-08-26T14:57:53.261Z,32.90
2022-08-26T15:00:39.141Z,32.80
2022-08-26T15:03:24.947Z,32.70
2022-08-26T15:06:11.049Z,32.60
2022-08-26T15:08:56.532Z,32.50
2022-08-26T15:11:42.526Z,32.40
2022-08-26T15:14:32.710Z,32.30
2022-08-26T15:17:18.441Z,32.20
2022-08-26T15:20:07.534Z,32.10
2022-08-26T15:22:53.512Z,31.90
2022-08-26T15:25:39.769Z,31.80
2022-08-26T15:28:25.167Z,31.70
2022-08-26T15:31:11.251Z,31.60
2022-08-26T15:34:03.721Z,31.70
2022-08-26T15:36:49.142Z,31.80
2022-08-26T15:39:35.170Z,31.90
2022-08-26T15:42:20.973Z,31.80
2022-08-26T15:45:07.046Z,31.70
2022-08-26T15:48:00.791Z,31.70
2022-08-26T15:50:56.273Z,31.70
2022-08-26T15:53:42.103Z,31.80
2022-08-26T15:56:31.165Z,31.90
2022-08-26T15:59:18.115Z,31.90
2022-08-26T16:02:05.167Z,31.90
2022-08-26T16:04:50.583Z,31.70
2022-08-26T16:07:36.329Z,31.60
2022-08-26T16:10:22.041Z,29.80
2022-08-26T16:13:10.339Z,31.30
2022-08-26T16:16:00.960Z,31.20
2022-08-26T16:18:49.715Z,31.10
2022-08-26T16:21:35.913Z,30.90
2022-08-26T16:24:24.839Z,30.90
2022-08-26T16:27:12.978Z,30.80
2022-08-26T16:29:58.692Z,30.60
2022-08-26T16:32:44.387Z,30.40
2022-08-26T16:35:29.939Z,30.10
2022-08-26T16:38:15.722Z,29.90
2022-08-26T16:41:01.858Z,29.70
2022-08-26T16:43:47.792Z,29.70
2022-08-26T16:46:34.214Z,29.70
2022-08-26T16:49:19.929Z,29.80
2022-08-26T16:52:06.469Z,29.80
2022-08-26T16:54:52.514Z,29.90
2022-08-26T16:57:40.812Z,29.90
2022-08-26T17:00:30.364Z,30.10
2022-08-26T17:03:16.044Z,30.20
2022-08-26T17:06:01.466Z,30.20
2022-08-26T17:08:47.632Z,30.20
2022-08-26T17:11:33.663Z,30.20
2022-08-26T17:14:19.823Z,30.20
2022-08-26T17:17:06.044Z,30.20
2022-08-26T17:19:51.762Z,30.20
2022-08-26T17:22:44.682Z,30.20
2022-08-26T17:25:32.247Z,30.00
2022-08-26T17:28:17.961Z,29.90
2022-08-26T17:31:04.755Z,29.90
2022-08-26T17:33:53.697Z,29.90
2022-08-26T17:36:40.097Z,29.70
2022-08-26T17:39:25.860Z,29.60
2022-08-26T17:42:11.928Z,29.60
2022-08-26T17:44:57.431Z,29.40
2022-08-26T17:47:43.477Z,29.30
2022-08-26T17:50:29.392Z,29.20
2022-08-26T17:53:18.757Z,29.10
2022-08-26T17:56:10.709Z,28.90
2022-08-26T17:59:02.479Z,28.80
2022-08-26T18:01:49.526Z,28.70
2022-08-26T18:04:35.016Z,28.60
2022-08-26T18:07:20.539Z,28.50
2022-08-26T18:10:12.926Z,28.40
2022-08-26T18:12:59.046Z,28.40
2022-08-26T18:15:46.445Z,28.40
2022-08-26T18:18:33.293Z,28.30
2022-08-26T18:21:26.501Z,28.40
2022-08-26T18:24:14.235Z,28.40
2022-08-26T18:27:00.467Z,28.40
2022-08-26T18:29:48.444Z,28.20
2022-08-26T18:32:36.823Z,27.90
2022-08-26T18:35:28.216Z,27.80
2022-08-26T18:38:15.288Z,27.80
2022-08-26T18:41:04.417Z,27.80
2022-08-26T18:43:51.632Z,27.70
2022-08-26T18:46:37.313Z,27.70
2022-08-26T18:49:23.193Z,27.60
2022-08-26T18:52:09.082Z,27.40
2022-08-26T18:54:55.435Z,27.30
2022-08-26T18:57:41.115Z,27.20
2022-08-26T19:00:26.533Z,27.30
2022-08-26T19:03:18.670Z,27.30
2022-08-26T19:06:04.820Z,27.30
2022-08-26T19:08:50.797Z,27.30
2022-08-26T19:11:42.278Z,27.20
2022-08-26T19:14:29.143Z,27.20
2022-08-26T19:17:14.783Z,27.10
2022-08-26T19:20:00.232Z,27.00
2022-08-26T19:22:46.025Z,26.90
2022-08-26T19:25:32.077Z,26.90
2022-08-26T19:28:19.750Z,26.80
2022-08-26T19:31:05.227Z,26.80
2022-08-26T19:33:51.195Z,26.70
2022-08-26T19:36:37.784Z,26.70
2022-08-26T19:39:23.572Z,26.80
2022-08-26T19:42:09.532Z,26.80
2022-08-26T19:45:18.285Z,26.80
2022-08-26T19:48:11.274Z,26.70
2022-08-26T19:50:56.988Z,26.60
2022-08-26T19:53:47.669Z,26.40
2022-08-26T19:56:33.488Z,26.60
2022-08-26T19:59:20.009Z,26.50
2022-08-26T20:02:10.579Z,26.20
2022-08-26T20:05:07.300Z,26.30
2022-08-26T20:07:57.391Z,26.30
2022-08-26T20:10:44.440Z,26.30
2022-08-26T20:13:32.691Z,26.20
2022-08-26T20:16:18.847Z,26.20
2022-08-26T20:19:23.065Z,26.20
2022-08-26T20:22:09.030Z,26.10
2022-08-26T20:24:55.085Z,26.10
2022-08-26T20:27:40.601Z,25.90
2022-08-26T20:30:26.405Z,26.00
2022-08-26T20:33:11.913Z,26.00
2022-08-26T20:35:57.851Z,26.00
2022-08-26T20:38:43.522Z,26.00
2022-08-26T20:41:29.052Z,26.00
2022-08-26T20:44:16.717Z,25.90
2022-08-26T20:47:02.372Z,25.90
2022-08-26T20:49:47.993Z,25.80
2022-08-26T20:52:37.972Z,25.80
2022-08-26T20:55:23.582Z,25.80
2022-08-26T20:58:09.177Z,25.80
2022-08-26T21:00:55.594Z,25.70
2022-08-26T21:03:41.191Z,25.60
2022-08-26T21:06:26.712Z,25.50
2022-08-26T21:09:14.347Z,25.60
2022-08-26T21:12:01.907Z,25.50
2022-08-26T21:14:49.625Z,25.60
2022-08-26T21:17:35.723Z,25.60
2022-08-26T21:20:21.243Z,25.60
2022-08-26T21:23:06.863Z,25.50
2022-08-26T21:25:52.396Z,25.50
2022-08-26T21:28:39.646Z,25.50
2022-08-26T21:31:25.689Z,25.40
2022-08-26T21:34:11.354Z,25.40
2022-08-26T21:36:57.128Z,25.40
2022-08-26T21:39:43.676Z,25.40
2022-08-26T21:42:32.546Z,25.40
2022-08-26T21:45:18.064Z,25.30
2022-08-26T21:48:03.838Z,25.40
2022-08-26T21:50:49.300Z,25.30
2022-08-26T21:53:35.580Z,25.20
2022-08-26T21:56:22.688Z,25.00
2022-08-26T21:59:09.109Z,25.00
2022-08-26T22:01:54.834Z,25.10
2022-08-26T22:04:43.667Z,25.10
2022-08-26T22:07:32.385Z,25.10
2022-08-26T22:10:17.876Z,25.00
2022-08-26T22:13:03.352Z,24.90
2022-08-26T22:15:49.164Z,24.90
2022-08-26T22:18:36.158Z,24.90
2022-08-26T22:21:25.089Z,24.80
2022-08-26T22:24:12.202Z,24.80
2022-08-26T22:26:57.934Z,24.90
2022-08-26T22:29:43.787Z,24.80
2022-08-26T22:32:29.608Z,24.80
2022-08-26T22:35:29.323Z,24.80
2022-08-26T22:38:16.339Z,24.80
2022-08-26T22:41:04.388Z,24.70
2022-08-26T22:43:53.566Z,24.70
2022-08-26T22:46:40.599Z,24.80
2022-08-26T22:49:26.309Z,24.70
2022-08-26T22:52:12.117Z,24.60
2022-08-26T22:54:57.970Z,24.60
2022-08-26T22:57:43.412Z,24.60
2022-08-26T23:00:32.454Z,24.60
2022-08-26T23:03:18.874Z,24.60
2022-08-26T23:06:11.530Z,24.60
2022-08-26T23:08:57.322Z,24.60
2022-08-26T23:11:43.516Z,24.50
2022-08-26T23:14:29.472Z,24.60
2022-08-26T23:17:15.513Z,24.70
2022-08-26T23:20:02.098Z,24.60
2022-08-26T23:22:47.982Z,24.60
2022-08-26T23:25:33.809Z,24.40
2022-08-26T23:28:20.651Z,24.50
2022-08-26T23:31:07.063Z,24.40
2022-08-26T23:34:10.991Z,24.40
2022-08-26T23:36:56.962Z,24.40
2022-08-26T23:39:42.899Z,24.40
2022-08-26T23:42:29.007Z,24.30
2022-08-26T23:45:18.359Z,24.40
2022-08-26T23:48:04.991Z,24.40
2022-08-26T23:51:09.076Z,24.30
2022-08-26T23:53:54.532Z,24.30
2022-08-26T23:56:40.832Z,24.20
2022-08-26T23:59:26.548Z,24.20
